createdAt,value
2023-02-16T00:00:26.835Z,81.47
2023-02-16T00:02:54.084Z,81.47
2023-02-16T00:05:31.012Z,81.26
2023-02-16T00:07:59.385Z,81.38
2023-02-16T00:10:32.732Z,81.44
2023-02-16T00:13:18.524Z,81.31
2023-02-16T00:15:45.608Z,81.36
2023-02-16T00:18:21.506Z,81.08
2023-02-16T00:20:49.565Z,81.38
2023-02-16T00:23:16.487Z,81.36
2023-02-16T00:25:43.583Z,81.09
2023-02-16T00:28:19.232Z,81.15
2023-02-16T00:30:47.228Z,80.88
2023-02-16T00:33:17.844Z,80.95
2023-02-16T00:35:45.198Z,81.03
2023-02-16T00:38:13.155Z,80.96
2023-02-16T00:40:41.563Z,81.05
2023-02-16T00:43:13.596Z,80.95
2023-02-16T00:45:40.521Z,81.06
2023-02-16T00:48:09.530Z,81.08
2023-02-16T00:50:36.459Z,80.76
2023-02-16T00:53:03.471Z,80.87
2023-02-16T00:55:36.333Z,80.89
2023-02-16T00:58:13.217Z,80.94
2023-02-16T01:00:56.069Z,81.04
2023-02-16T01:03:27.141Z,80.99
2023-02-16T01:06:14.225Z,80.67
2023-02-16T01:09:00.418Z,81.11
2023-02-16T01:11:27.593Z,81.05
2023-02-16T01:13:56.020Z,81.29
2023-02-16T01:16:51.830Z,81.01
2023-02-16T01:19:20.120Z,81.33
2023-02-16T01:21:47.325Z,81.38
2023-02-16T01:24:14.850Z,81.42
2023-02-16T01:26:48.897Z,81.31
2023-02-16T01:29:20.045Z,81.26
2023-02-16T01:31:50.003Z,81.15
2023-02-16T01:34:17.121Z,81.19
2023-02-16T01:36:47.409Z,81.19
2023-02-16T01:39:19.738Z,80.79
2023-02-16T01:42:14.017Z,80.84
2023-02-16T01:44:55.213Z,80.87
2023-02-16T01:47:49.564Z,80.89
2023-02-16T01:50:32.066Z,80.88
2023-02-16T01:53:12.521Z,80.99
2023-02-16T01:55:46.954Z,81.04
2023-02-16T01:58:39.692Z,80.91
2023-02-16T02:01:36.000Z,80.99
2023-02-16T02:04:57.741Z,80.89
2023-02-16T02:07:37.825Z,80.87
2023-02-16T02:10:55.536Z,80.67
2023-02-16T02:13:45.132Z,80.73
2023-02-16T02:16:16.405Z,81.03
2023-02-16T02:18:44.915Z,81.03
2023-02-16T02:21:47.465Z,80.88
2023-02-16T02:24:35.453Z,81.04
2023-02-16T02:27:26.728Z,80.79
2023-02-16T02:30:18.813Z,80.97
2023-02-16T02:33:04.792Z,80.96
2023-02-16T02:35:57.507Z,81.09
2023-02-16T02:38:55.198Z,80.77
2023-02-16T02:41:54.139Z,80.91
2023-02-16T02:44:24.410Z,81.39
2023-02-16T02:46:51.680Z,82.54
2023-02-16T02:49:19.606Z,82.22
2023-02-16T02:51:47.823Z,82.22
2023-02-16T02:54:38.199Z,82.00
2023-02-16T02:57:38.662Z,81.74
2023-02-16T03:00:31.232Z,81.40
2023-02-16T03:03:06.284Z,81.34
2023-02-16T03:05:36.167Z,81.57
2023-02-16T03:08:17.375Z,81.10
2023-02-16T03:11:11.948Z,80.85
2023-02-16T03:14:03.396Z,80.96
2023-02-16T03:16:39.024Z,81.07
2023-02-16T03:19:27.632Z,81.36
2023-02-16T03:22:15.700Z,81.54
2023-02-16T03:25:01.447Z,81.72
2023-02-16T03:28:01.292Z,81.70
2023-02-16T03:30:29.855Z,82.02
2023-02-16T03:32:56.891Z,82.37
2023-02-16T03:35:24.569Z,81.86
2023-02-16T03:37:51.668Z,82.02
2023-02-16T03:40:30.867Z,82.30
2023-02-16T03:43:04.263Z,81.92
2023-02-16T03:45:38.343Z,82.03
2023-02-16T03:48:06.220Z,82.11
2023-02-16T03:50:33.630Z,82.07
2023-02-16T03:53:09.247Z,81.95
2023-02-16T03:55:43.359Z,81.98
2023-02-16T03:58:14.496Z,81.85
2023-02-16T04:00:41.625Z,81.63
2023-02-16T04:03:09.113Z,81.65
2023-02-16T04:05:36.974Z,81.61
2023-02-16T04:08:04.651Z,81.43
2023-02-16T04:10:31.889Z,81.63
2023-02-16T04:12:58.899Z,81.84
2023-02-16T04:15:28.796Z,81.76
2023-02-16T04:17:56.313Z,81.67
2023-02-16T04:20:30.543Z,81.48
2023-02-16T04:22:57.854Z,81.44
2023-02-16T04:25:25.605Z,81.37
2023-02-16T04:27:53.301Z,81.49
2023-02-16T04:30:24.473Z,81.81
2023-02-16T04:32:51.835Z,81.95
2023-02-16T04:35:19.924Z,81.72
2023-02-16T04:37:46.936Z,81.79
2023-02-16T04:40:16.821Z,81.70
2023-02-16T04:42:45.290Z,82.10
2023-02-16T04:45:13.082Z,82.23
2023-02-16T04:47:40.424Z,82.03
2023-02-16T04:50:08.501Z,82.06
2023-02-16T04:52:37.616Z,81.92
2023-02-16T04:55:07.219Z,82.90
2023-02-16T04:57:34.207Z,82.50
2023-02-16T05:00:01.177Z,83.16
2023-02-16T05:02:28.279Z,82.31
2023-02-16T05:04:55.219Z,83.00
2023-02-16T05:07:22.181Z,83.11
2023-02-16T05:09:49.175Z,82.96
2023-02-16T05:12:34.704Z,82.52
2023-02-16T05:15:01.686Z,82.47
2023-02-16T05:17:29.631Z,82.70
2023-02-16T05:19:59.192Z,82.63
2023-02-16T05:22:28.854Z,82.40
2023-02-16T05:24:55.835Z,82.64
2023-02-16T05:27:26.540Z,82.65
2023-02-16T05:29:53.703Z,82.33
2023-02-16T05:32:21.521Z,82.30
2023-02-16T05:34:48.550Z,83.69
2023-02-16T05:37:17.547Z,82.78
2023-02-16T05:39:45.884Z,83.13
2023-02-16T05:42:13.338Z,82.72
2023-02-16T05:44:40.256Z,82.67
2023-02-16T05:47:07.572Z,82.68
2023-02-16T05:49:34.585Z,82.70
2023-02-16T05:52:02.454Z,82.71
2023-02-16T05:54:29.701Z,82.65
2023-02-16T05:56:56.771Z,82.62
2023-02-16T05:59:24.007Z,83.64
2023-02-16T06:01:52.394Z,84.61
2023-02-16T06:04:21.428Z,83.96
2023-02-16T06:06:48.855Z,83.81
2023-02-16T06:09:16.158Z,83.77
2023-02-16T06:11:43.484Z,83.31
2023-02-16T06:14:19.956Z,83.24
2023-02-16T06:16:50.000Z,83.14
2023-02-16T06:19:19.202Z,83.08
2023-02-16T06:21:46.962Z,83.53
2023-02-16T06:24:14.638Z,83.32
2023-02-16T06:26:42.073Z,83.07
2023-02-16T06:29:10.191Z,82.88
2023-02-16T06:31:37.358Z,83.27
2023-02-16T06:34:05.246Z,83.37
2023-02-16T06:36:33.186Z,83.16
2023-02-16T06:39:00.274Z,83.49
2023-02-16T06:41:37.679Z,83.60
2023-02-16T06:44:08.951Z,83.81
2023-02-16T06:46:35.993Z,83.72
2023-02-16T06:49:22.100Z,83.46
2023-02-16T06:52:04.618Z,83.16
2023-02-16T06:54:31.573Z,83.38
2023-02-16T06:56:58.508Z,83.52
2023-02-16T06:59:25.520Z,83.86
2023-02-16T07:01:52.433Z,83.95
2023-02-16T07:04:19.439Z,84.60
2023-02-16T07:07:04.890Z,83.77
2023-02-16T07:09:51.126Z,83.84
2023-02-16T07:12:36.568Z,83.66
2023-02-16T07:15:23.054Z,83.91
2023-02-16T07:17:50.021Z,83.96
2023-02-16T07:20:18.418Z,83.78
2023-02-16T07:22:45.364Z,84.14
2023-02-16T07:25:12.284Z,84.24
2023-02-16T07:27:39.205Z,85.03
2023-02-16T07:30:08.794Z,84.46
2023-02-16T07:32:35.750Z,84.11
2023-02-16T07:35:02.772Z,84.10
2023-02-16T07:37:29.869Z,84.27
2023-02-16T07:39:57.424Z,84.58
2023-02-16T07:42:24.364Z,85.58
2023-02-16T07:44:52.206Z,85.05
2023-02-16T07:47:19.120Z,84.83
2023-02-16T07:49:46.186Z,84.80
2023-02-16T07:52:13.226Z,84.72
2023-02-16T07:54:40.240Z,85.02
2023-02-16T07:57:07.637Z,85.03
2023-02-16T07:59:34.647Z,85.38
2023-02-16T08:02:01.709Z,85.33
2023-02-16T08:04:28.692Z,85.38
2023-02-16T08:06:55.593Z,86.44
2023-02-16T08:09:22.556Z,86.09
2023-02-16T08:11:49.497Z,85.89
2023-02-16T08:14:16.551Z,86.02
2023-02-16T08:16:43.622Z,86.03
2023-02-16T08:19:13.038Z,86.32
2023-02-16T08:21:40.274Z,86.00
2023-02-16T08:24:08.752Z,86.04
2023-02-16T08:26:39.852Z,86.55
2023-02-16T08:29:09.908Z,86.56
2023-02-16T08:31:38.119Z,86.28
2023-02-16T08:34:06.067Z,86.42
2023-02-16T08:36:38.379Z,86.76
2023-02-16T08:39:15.186Z,87.37
2023-02-16T08:41:44.602Z,87.04
2023-02-16T08:44:13.166Z,87.14
2023-02-16T08:46:43.775Z,87.04
2023-02-16T08:49:12.538Z,87.11
2023-02-16T08:51:46.229Z,87.56
2023-02-16T08:54:24.267Z,87.22
2023-02-16T08:56:51.187Z,87.35
2023-02-16T08:59:20.762Z,87.04
2023-02-16T09:01:48.533Z,87.29
2023-02-16T09:04:18.986Z,87.19
2023-02-16T09:06:48.313Z,87.22
2023-02-16T09:09:15.891Z,87.26
2023-02-16T09:11:42.846Z,87.11
2023-02-16T09:14:10.432Z,87.68
2023-02-16T09:16:39.787Z,87.56
2023-02-16T09:19:07.193Z,87.23
2023-02-16T09:21:34.297Z,87.50
2023-02-16T09:24:04.471Z,87.63
2023-02-16T09:26:35.068Z,87.72
2023-02-16T09:29:03.487Z,87.93
2023-02-16T09:31:35.252Z,87.43
2023-02-16T09:34:13.996Z,87.50
2023-02-16T09:36:41.383Z,87.57
2023-02-16T09:39:08.355Z,87.52
2023-02-16T09:41:56.646Z,87.77
2023-02-16T09:44:33.385Z,87.81
2023-02-16T09:47:04.853Z,87.80
2023-02-16T09:49:45.016Z,87.79
2023-02-16T09:52:42.328Z,88.36
2023-02-16T09:55:18.501Z,88.11
2023-02-16T09:58:16.731Z,88.01
2023-02-16T10:00:57.894Z,88.37
2023-02-16T10:03:41.259Z,88.93
2023-02-16T10:06:14.141Z,88.63
2023-02-16T10:08:47.760Z,88.44
2023-02-16T10:11:46.486Z,88.81
2023-02-16T10:14:43.660Z,89.31
2023-02-16T10:17:33.361Z,89.12
2023-02-16T10:20:41.815Z,89.34
2023-02-16T10:23:46.485Z,89.80
2023-02-16T10:26:20.801Z,89.55
2023-02-16T10:28:58.741Z,89.63
2023-02-16T10:31:43.503Z,89.45
2023-02-16T10:34:56.032Z,89.81
2023-02-16T10:37:49.024Z,89.88
2023-02-16T10:40:25.883Z,89.58
2023-02-16T10:43:05.476Z,89.69
2023-02-16T10:45:56.430Z,89.77
2023-02-16T10:48:24.611Z,89.76
2023-02-16T10:51:16.606Z,89.99
2023-02-16T10:54:00.472Z,90.31
2023-02-16T10:56:59.416Z,90.86
2023-02-16T10:59:46.023Z,90.45
2023-02-16T11:02:36.510Z,90.45
2023-02-16T11:05:26.183Z,90.97
2023-02-16T11:08:01.414Z,90.38
2023-02-16T11:10:50.344Z,90.92
2023-02-16T11:13:34.202Z,91.76
2023-02-16T11:16:13.779Z,91.44
2023-02-16T11:18:45.545Z,91.58
2023-02-16T11:21:13.274Z,91.81
2023-02-16T11:23:42.976Z,91.23
2023-02-16T11:26:10.089Z,91.35
2023-02-16T11:28:44.630Z,92.25
2023-02-16T11:31:36.204Z,92.22
2023-02-16T11:34:14.051Z,92.23
2023-02-16T11:36:44.211Z,91.67
2023-02-16T11:39:14.213Z,92.41
2023-02-16T11:41:53.707Z,93.22
2023-02-16T11:44:43.360Z,93.17
2023-02-16T11:47:37.515Z,92.64
2023-02-16T11:50:29.189Z,92.49
2023-02-16T11:53:10.004Z,92.46
2023-02-16T11:55:41.738Z,91.51
2023-02-16T11:58:19.490Z,91.67
2023-02-16T12:01:10.046Z,92.16
2023-02-16T12:04:06.240Z,92.19
2023-02-16T12:06:57.523Z,91.87
2023-02-16T12:09:50.961Z,91.67
2023-02-16T12:12:45.201Z,92.75
2023-02-16T12:15:39.505Z,93.01
2023-02-16T12:18:32.349Z,92.87
2023-02-16T12:21:06.884Z,91.99
2023-02-16T12:24:23.172Z,92.67
2023-02-16T12:27:12.538Z,92.00
2023-02-16T12:29:59.168Z,93.10
2023-02-16T12:33:00.979Z,93.31
2023-02-16T12:36:27.230Z,94.03
2023-02-16T12:38:59.776Z,93.16
2023-02-16T12:42:08.292Z,94.54
2023-02-16T12:44:59.393Z,94.25
2023-02-16T12:47:50.808Z,95.34
2023-02-16T12:50:27.621Z,93.27
2023-02-16T12:53:04.156Z,92.35
2023-02-16T12:55:45.746Z,92.44
2023-02-16T12:58:41.838Z,93.62
2023-02-16T13:01:23.626Z,93.13
2023-02-16T13:04:38.645Z,92.85
2023-02-16T13:07:20.890Z,92.11
2023-02-16T13:10:04.553Z,90.69
2023-02-16T13:12:51.936Z,89.90
2023-02-16T13:15:43.780Z,90.37
2023-02-16T13:18:35.925Z,91.12
2023-02-16T13:21:11.028Z,90.27
2023-02-16T13:24:07.886Z,90.82
2023-02-16T13:27:06.127Z,90.71
2023-02-16T13:30:20.635Z,91.59
2023-02-16T13:32:56.712Z,90.39
2023-02-16T13:36:10.864Z,91.38
2023-02-16T13:39:09.705Z,89.92
2023-02-16T13:42:12.300Z,88.95
2023-02-16T13:44:54.346Z,89.03
2023-02-16T13:47:30.518Z,88.46
2023-02-16T13:50:03.867Z,87.69
2023-02-16T13:52:36.919Z,87.28
2023-02-16T13:55:21.478Z,87.76
2023-02-16T13:57:50.881Z,87.57
2023-02-16T14:00:47.735Z,89.06
2023-02-16T14:03:17.638Z,87.44
2023-02-16T14:05:48.701Z,87.58
2023-02-16T14:08:24.520Z,87.04
2023-02-16T14:10:54.119Z,86.66
2023-02-16T14:13:39.336Z,88.45
2023-02-16T14:16:27.864Z,87.29
2023-02-16T14:19:02.385Z,86.56
2023-02-16T14:21:44.030Z,87.41
2023-02-16T14:24:35.650Z,88.24
2023-02-16T14:27:09.428Z,86.82
2023-02-16T14:30:03.281Z,87.86
2023-02-16T14:32:38.441Z,86.23
2023-02-16T14:35:23.914Z,87.08
2023-02-16T14:37:58.954Z,85.93
2023-02-16T14:40:34.836Z,86.20
2023-02-16T14:43:31.447Z,86.06
2023-02-16T14:46:25.897Z,86.39
2023-02-16T14:49:25.738Z,86.32
2023-02-16T14:52:39.564Z,86.69
2023-02-16T14:55:56.940Z,86.42
2023-02-16T14:58:35.813Z,85.48
2023-02-16T15:01:13.547Z,85.46
2023-02-16T15:03:58.008Z,85.75
2023-02-16T15:06:47.505Z,85.30
2023-02-16T15:09:27.765Z,84.68
2023-02-16T15:12:18.057Z,84.18
2023-02-16T15:14:51.581Z,83.61
2023-02-16T15:17:48.477Z,85.12
2023-02-16T15:20:21.548Z,83.97
2023-02-16T15:23:16.957Z,84.13
2023-02-16T15:26:00.899Z,83.59
2023-02-16T15:28:34.148Z,83.22
2023-02-16T15:31:17.924Z,83.07
2023-02-16T15:33:56.709Z,83.52
2023-02-16T15:36:36.427Z,83.62
2023-02-16T15:39:13.508Z,82.99
2023-02-16T15:41:48.479Z,82.68
2023-02-16T15:44:34.171Z,84.07
2023-02-16T15:47:13.948Z,82.92
2023-02-16T15:49:41.627Z,82.64
2023-02-16T15:52:16.139Z,82.75
2023-02-16T15:54:44.151Z,82.34
2023-02-16T15:57:36.626Z,83.11
2023-02-16T16:00:20.622Z,82.77
2023-02-16T16:02:58.294Z,82.48
2023-02-16T16:05:32.985Z,82.19
2023-02-16T16:08:01.446Z,81.51
2023-02-16T16:10:39.605Z,81.61
2023-02-16T16:13:26.470Z,82.26
2023-02-16T16:16:01.469Z,81.56
2023-02-16T16:18:39.386Z,81.70
2023-02-16T16:21:19.561Z,81.13
2023-02-16T16:24:18.707Z,81.68
2023-02-16T16:26:55.635Z,81.85
2023-02-16T16:29:49.036Z,81.79
2023-02-16T16:32:29.802Z,81.82
2023-02-16T16:34:57.000Z,80.70
2023-02-16T16:37:35.635Z,81.50
2023-02-16T16:40:26.354Z,81.72
2023-02-16T16:43:02.323Z,81.22
2023-02-16T16:45:52.050Z,81.56
2023-02-16T16:48:37.243Z,80.32
2023-02-16T16:51:39.435Z,80.96
2023-02-16T16:54:30.635Z,80.79
2023-02-16T16:56:57.696Z,80.43
2023-02-16T16:59:24.639Z,80.60
2023-02-16T17:01:52.769Z,80.62
2023-02-16T17:04:21.968Z,80.44
2023-02-16T17:06:49.128Z,80.08
2023-02-16T17:09:16.955Z,79.99
2023-02-16T17:11:44.050Z,80.64
2023-02-16T17:14:17.140Z,81.00
2023-02-16T17:16:53.108Z,80.68
2023-02-16T17:19:22.950Z,80.40
2023-02-16T17:21:49.986Z,80.37
2023-02-16T17:24:17.377Z,80.76
2023-02-16T17:26:44.368Z,80.22
2023-02-16T17:29:11.330Z,80.50
2023-02-16T17:31:38.349Z,80.76
2023-02-16T17:34:05.280Z,80.36
2023-02-16T17:36:32.434Z,80.47
2023-02-16T17:38:59.391Z,80.22
2023-02-16T17:41:29.156Z,80.61
2023-02-16T17:43:56.154Z,80.50
2023-02-16T17:46:23.831Z,80.57
2023-02-16T17:48:53.860Z,80.31
2023-02-16T17:51:24.368Z,80.85
2023-02-16T17:53:53.330Z,80.49
2023-02-16T17:56:23.011Z,80.79
2023-02-16T17:58:51.107Z,80.33
2023-02-16T18:01:19.444Z,80.24
2023-02-16T18:03:46.752Z,80.49
2023-02-16T18:06:20.126Z,80.51
2023-02-16T18:08:47.516Z,80.23
2023-02-16T18:11:14.472Z,80.43
2023-02-16T18:13:41.401Z,79.92
2023-02-16T18:16:10.479Z,80.25
2023-02-16T18:18:39.212Z,80.14
2023-02-16T18:21:06.839Z,80.25
2023-02-16T18:23:34.947Z,80.23
2023-02-16T18:26:03.631Z,79.98
2023-02-16T18:28:33.664Z,80.15
2023-02-16T18:31:04.552Z,80.15
2023-02-16T18:33:31.924Z,80.07
2023-02-16T18:35:58.962Z,80.05
2023-02-16T18:38:26.133Z,79.75
2023-02-16T18:40:54.682Z,79.87
2023-02-16T18:43:23.128Z,79.42
2023-02-16T18:45:50.635Z,79.53
2023-02-16T18:48:17.684Z,79.42
2023-02-16T18:50:44.791Z,80.06
2023-02-16T18:53:11.887Z,79.69
2023-02-16T18:55:39.052Z,79.88
2023-02-16T18:58:08.318Z,79.80
2023-02-16T19:00:36.637Z,79.60
2023-02-16T19:03:04.373Z,79.95
2023-02-16T19:05:32.243Z,79.56
2023-02-16T19:07:59.629Z,79.53
2023-02-16T19:10:27.472Z,79.21
2023-02-16T19:12:54.392Z,79.28
2023-02-16T19:15:21.413Z,79.53
2023-02-16T19:17:48.644Z,79.53
2023-02-16T19:20:18.384Z,79.53
2023-02-16T19:22:49.309Z,79.63
2023-02-16T19:25:16.362Z,79.25
2023-02-16T19:27:44.769Z,79.42
2023-02-16T19:30:12.948Z,78.87
2023-02-16T19:32:41.113Z,79.36
2023-02-16T19:35:12.071Z,79.32
2023-02-16T19:37:39.297Z,79.17
2023-02-16T19:40:09.035Z,79.00
2023-02-16T19:42:37.187Z,79.31
2023-02-16T19:45:04.783Z,79.09
2023-02-16T19:47:31.819Z,78.85
2023-02-16T19:49:58.740Z,79.20
2023-02-16T19:52:25.867Z,79.02
2023-02-16T19:54:52.809Z,78.72
2023-02-16T19:57:20.222Z,78.89
2023-02-16T19:59:47.187Z,78.61
2023-02-16T20:02:15.433Z,78.80
2023-02-16T20:04:44.554Z,78.88
2023-02-16T20:07:11.587Z,78.21
2023-02-16T20:09:38.825Z,78.20
2023-02-16T20:12:06.498Z,78.43
2023-02-16T20:14:33.768Z,78.03
2023-02-16T20:17:00.768Z,77.40
2023-02-16T20:19:27.737Z,77.94
2023-02-16T20:21:54.764Z,77.54
2023-02-16T20:24:21.815Z,77.88
2023-02-16T20:26:51.227Z,77.88
2023-02-16T20:29:18.260Z,77.35
2023-02-16T20:31:55.649Z,77.45
2023-02-16T20:34:25.806Z,77.26
2023-02-16T20:36:53.853Z,77.28
2023-02-16T20:39:22.122Z,77.03
2023-02-16T20:41:49.616Z,77.02
2023-02-16T20:44:17.132Z,76.98
2023-02-16T20:46:44.615Z,76.84
2023-02-16T20:49:13.343Z,76.97
2023-02-16T20:51:41.352Z,76.51
2023-02-16T20:54:08.987Z,76.66
2023-02-16T20:56:36.318Z,76.71
2023-02-16T20:59:04.466Z,76.79
2023-02-16T21:01:46.415Z,77.12
2023-02-16T21:04:17.721Z,76.57
2023-02-16T21:06:45.165Z,76.10
2023-02-16T21:09:12.253Z,76.43
2023-02-16T21:11:39.894Z,76.14
2023-02-16T21:14:08.652Z,76.18
2023-02-16T21:16:36.586Z,76.77
2023-02-16T21:19:09.296Z,76.39
2023-02-16T21:21:44.235Z,76.61
2023-02-16T21:24:11.299Z,76.86
2023-02-16T21:26:38.261Z,76.23
2023-02-16T21:29:05.369Z,75.99
2023-02-16T21:31:32.513Z,75.79
2023-02-16T21:33:59.615Z,75.90
2023-02-16T21:36:27.431Z,76.00
2023-02-16T21:38:54.819Z,75.63
2023-02-16T21:41:27.660Z,75.39
2023-02-16T21:44:00.934Z,75.96
2023-02-16T21:46:37.280Z,76.40
2023-02-16T21:49:07.338Z,76.07
2023-02-16T21:51:37.495Z,75.66
2023-02-16T21:54:13.117Z,76.30
2023-02-16T21:56:52.846Z,76.36
2023-02-16T21:59:22.582Z,76.44
2023-02-16T22:01:51.561Z,76.31
2023-02-16T22:04:21.777Z,76.19
2023-02-16T22:06:50.737Z,75.90
2023-02-16T22:09:22.092Z,76.51
2023-02-16T22:11:50.306Z,76.21
2023-02-16T22:14:17.519Z,76.46
2023-02-16T22:16:46.362Z,76.38
2023-02-16T22:19:16.213Z,75.95
2023-02-16T22:21:45.298Z,76.32
2023-02-16T22:24:14.453Z,76.10
2023-02-16T22:26:41.656Z,76.08
2023-02-16T22:29:09.628Z,76.08
2023-02-16T22:31:37.425Z,75.97
2023-02-16T22:34:11.606Z,76.22
2023-02-16T22:36:38.636Z,76.20
2023-02-16T22:39:06.479Z,76.19
2023-02-16T22:41:34.634Z,76.01
2023-02-16T22:44:01.607Z,76.24
2023-02-16T22:46:30.007Z,76.21
2023-02-16T22:48:58.872Z,76.31
2023-02-16T22:51:27.974Z,76.06
2023-02-16T22:53:57.736Z,75.75
2023-02-16T22:56:26.771Z,76.26
2023-02-16T22:58:57.352Z,76.40
2023-02-16T23:01:26.601Z,76.63
2023-02-16T23:03:57.238Z,76.50
2023-02-16T23:06:34.135Z,76.53
2023-02-16T23:09:08.037Z,76.37
2023-02-16T23:11:36.246Z,76.31
2023-02-16T23:14:04.087Z,76.38
2023-02-16T23:16:31.574Z,76.34
2023-02-16T23:19:00.071Z,76.23
2023-02-16T23:21:30.428Z,76.80
2023-02-16T23:23:58.899Z,76.25
2023-02-16T23:26:30.736Z,76.76
2023-02-16T23:29:01.576Z,76.74
2023-02-16T23:31:33.405Z,76.17
2023-02-16T23:34:02.615Z,76.38
2023-02-16T23:36:31.416Z,76.56
2023-02-16T23:39:04.092Z,76.49
2023-02-16T23:41:31.001Z,76.18
2023-02-16T23:44:00.038Z,76.36
2023-02-16T23:46:28.264Z,76.54
2023-02-16T23:48:55.304Z,76.82
2023-02-16T23:51:22.363Z,76.84
2023-02-16T23:53:49.877Z,76.46
2023-02-16T23:56:21.447Z,76.55
2023-02-16T23:58:49.573Z,76.36
